Ceuta, España

2:23 AM CEST en Agosto 21, 2014 (GMT +0200)
Ceuta | Change Station
CLOSE
Current Station
Estación meteorológica personal
Location: Ceuta, CEUTA
Altura: 220 ft
Estaciones meteorológicas cercanas

Alt 220 ft 35.88 °N, 5.33 °W | Updated 16 seconds ago

Clear
Despejado
77.4 ° F
Sensación térmica 77 ° F
N
0.0
Viento Variable Viento desde Norte
Gusts 0.0 mph

Hoy
Alta -- | Baja -- ° F
--% Posibilidad de precipitaciones
Ayer
Alta -- | Baja -- ° F
Precip. -- pul
7:44 AM 9:03 PM
Creciente menguante, 18% visible
Presión 29.98 pul
Visibilidad -9999.0 Millas
Nubes
Índice de calor 77 ° F
Punto de rocío 34 ° F
Humedad 20%
Precipitaciones 0.00 pul
Espesor de la nieve No disponible.
UV 0.0 de una escala de 12
Polen No disponible.
Calidad del aire No disponible.
Flu Activity No disponible.
METAR GMTN 210000Z 20007KT CAVOK 24/06 Q1015 NOSIG

More Conditions Fewer Conditions

Presión 29.98 pul
Visibilidad -9999.0 Millas
Nubes
Índice de calor 77 ° F
Punto de rocío 34 ° F
Humedad 20%
Precipitaciones 0.00 pul
Espesor de la nieve No disponible.
UV 0.0 de una escala de 12
Polen No disponible.
Calidad del aire No disponible.
Flu Activity No disponible.
METAR GMTN 210000Z 20007KT CAVOK 24/06 Q1015 NOSIG

More Conditions Fewer Conditions

10-Day Weather Forecast

Almanac

Astronomía

Aug. 21, 2014 Salida Puesta
Hora real 7:44 AM CEST 9:03 PM CEST
Crepúsculo civil 7:17 AM CEST 9:30 PM CEST
Crepúsculo náutico 6:45 AM CEST 10:02 PM CEST
Crepúsculo astronómico 6:12 AM CEST 10:35 PM CEST
Luna 4:06 AM CEST 6:19 PM CEST
Horas de luz 14h 12m
Horas de luz
13h 19m
Tomorrow will be 2m 4s shorter.
Creciente menguante, 18% of the Moon is Illuminated
Ago 20
Creciente menguante
Ago 25
Nueva
Sep 2
Cuarto creciente
Sep 8
Luna llena
Sep 15
Cuarto menguante

Extremos de ayer

Máximos del país Bajas del país

Community

WunderPhotos

Upload Photos

1,745,807 ¡fotos cargadas!

WunderBlogs® & News

Nearby

Calidad del aire

Not available.

Grosos de nieve

Not available.

Actividad de terremotos

Ciudad Distance Mag. Tiempo y dato
No hay informes recientes de la actividad sísmica.
Magnitud mínima muestra es 2,5.

Temperaturas de aguas costeras

Lugar Temperatura
Sin partes meteorológicos de las estaciones

Estaciones meteorológicas cercanas